Airfield :
LOGIN :

Register | Disclaimer

   EN    FR    IT 

 










Legend :    VFR   Marginal VFR   IFR   Intensive IFR   Very Intensive IFR
Visi :
Ceiling :
>= 8 km
>= 3000ft
5 to 8 km
1000 to 3000 ft
1500m to 5 km
500 to 1000 ft
800 to 1500m
200 to 500 ft
< 800m
< 200 ft
Symbols :   Thunderstorms  Fog  Heavy snow  Heavy precipitations  Wind > 20 kt
SIGMETs :     Misc.  Thunderstorms  Icing  Turbulence  Mountain Waves  Volcanic Ashes






- Airport Elevation : 313 ft


LFQA - Reims-Prunay

CURRENT METAR :
  • 131030Z AUTO 26020G30KT 9999 BKN023/// OVC034/// ///TCU 08/04 Q0981

EXPIRED METARs :
  • 131000Z AUTO 26020G30KT 9999 BKN024 BKN031 BKN037 07/04 Q0980
  • 130930Z AUTO 26019G31KT 9999 BKN025 BKN036 BKN043 07/03 Q0980
  • 130900Z AUTO 26016KT 230V290 9999 BKN022 BKN033 BKN040 07/04 Q0979
  • 130830Z AUTO 27017G28KT 9999 BKN025 BKN031 OVC037 07/04 Q0979
  • 130800Z AUTO 27016G26KT 9999 FEW027 BKN033 BKN041 07/03 Q0978

TAF N/A



MET'MAP, your aeronautical weather chart ! - Copyright ORBIFLY December 2007 - Disclaimer

ORBIFLY MET'MAP TEAM :

Programming & Development : Alexandra Zaïnal
Concept & original design : Baudouin d'Aumeries
Assistance for programming : Marc-Olivier Méhu
Technical & hardware support : Manuel Goepfert

Contact : metmap@orbifly.com




SOURCES & CREDITS :

   NOAA